createdAt,value
2019-02-22T00:00:42.227Z,55.90
2019-02-22T00:03:16.593Z,57.63
2019-02-22T00:05:51.563Z,58.90
2019-02-22T00:08:25.627Z,58.13
2019-02-22T00:10:59.577Z,59.23
2019-02-22T00:13:35.039Z,59.20
2019-02-22T00:16:08.853Z,59.50
2019-02-22T00:18:42.547Z,58.30
2019-02-22T00:21:17.346Z,55.77
2019-02-22T00:23:51.159Z,59.47
2019-02-22T00:26:25.391Z,58.83
2019-02-22T00:28:59.297Z,58.40
2019-02-22T00:31:33.418Z,56.97
2019-02-22T00:34:07.368Z,57.47
2019-02-22T00:36:41.664Z,59.13
2019-02-22T00:39:15.750Z,56.37
2019-02-22T00:41:49.472Z,56.73
2019-02-22T00:44:24.525Z,57.37
2019-02-22T00:46:58.340Z,57.83
2019-02-22T00:49:32.210Z,58.67
2019-02-22T00:52:06.216Z,57.87
2019-02-22T00:54:42.177Z,57.87
2019-02-22T00:57:16.551Z,56.43
2019-02-22T00:59:50.291Z,56.90
2019-02-22T01:02:24.563Z,56.27
2019-02-22T01:04:59.042Z,57.30
2019-02-22T01:07:33.050Z,57.40
2019-02-22T01:10:06.661Z,57.20
2019-02-22T01:12:39.365Z,57.57
2019-02-22T01:15:13.043Z,55.90
2019-02-22T01:17:47.093Z,55.53
2019-02-22T01:20:20.955Z,56.87
2019-02-22T01:22:55.421Z,58.00
2019-02-22T01:25:29.581Z,58.10
2019-02-22T01:28:03.574Z,58.10
2019-02-22T01:30:37.813Z,58.93
2019-02-22T01:33:11.386Z,54.80
2019-02-22T01:35:44.822Z,55.13
2019-02-22T01:38:20.667Z,55.77
2019-02-22T01:40:54.122Z,55.07
2019-02-22T01:43:27.898Z,53.30
2019-02-22T01:46:01.498Z,55.60
2019-02-22T01:48:35.725Z,56.40
2019-02-22T01:51:09.926Z,55.77
2019-02-22T01:53:44.375Z,57.43
2019-02-22T01:56:18.315Z,59.00
2019-02-22T01:58:53.605Z,57.67
2019-02-22T02:01:28.987Z,57.10
2019-02-22T02:04:04.211Z,58.30
2019-02-22T02:06:39.414Z,59.93
2019-02-22T02:09:14.790Z,60.13
2019-02-22T02:11:50.350Z,60.50
2019-02-22T02:14:24.510Z,59.73
2019-02-22T02:17:00.445Z,64.10
2019-02-22T02:19:36.123Z,61.43
2019-02-22T02:22:11.108Z,60.80
2019-02-22T02:24:45.791Z,61.10
2019-02-22T02:27:21.154Z,61.30
2019-02-22T02:29:56.192Z,59.60
2019-02-22T02:32:31.526Z,59.43
2019-02-22T02:35:07.198Z,60.67
2019-02-22T02:37:42.318Z,62.10
2019-02-22T02:40:16.827Z,59.90
2019-02-22T02:42:50.680Z,60.77
2019-02-22T02:45:26.097Z,60.33
2019-02-22T02:48:01.247Z,62.57
2019-02-22T02:50:36.059Z,62.00
2019-02-22T02:53:11.519Z,62.23
2019-02-22T02:55:47.609Z,62.60
2019-02-22T02:58:20.894Z,61.07
2019-02-22T03:00:55.697Z,60.80
2019-02-22T03:03:30.593Z,59.23
2019-02-22T03:06:10.639Z,60.47
2019-02-22T03:08:44.995Z,59.67
2019-02-22T03:11:21.083Z,61.07
2019-02-22T03:13:56.088Z,60.23
2019-02-22T03:16:30.406Z,61.67
2019-02-22T03:19:03.620Z,60.87
2019-02-22T03:21:39.143Z,59.70
2019-02-22T03:24:14.386Z,61.60
2019-02-22T03:26:48.622Z,61.77
2019-02-22T03:29:24.463Z,62.87
2019-02-22T03:31:59.613Z,59.17
2019-02-22T03:34:35.043Z,60.50
2019-02-22T03:37:10.389Z,63.03
2019-02-22T03:39:45.064Z,65.33
2019-02-22T03:42:19.579Z,66.53
2019-02-22T03:44:54.472Z,62.97
2019-02-22T03:47:29.875Z,64.63
2019-02-22T03:50:05.839Z,63.13
2019-02-22T03:52:48.356Z,61.67
2019-02-22T03:55:23.820Z,62.20
2019-02-22T03:57:58.570Z,62.80
2019-02-22T04:00:33.805Z,62.70
2019-02-22T04:03:10.332Z,64.23
2019-02-22T04:05:45.951Z,62.57
2019-02-22T04:08:21.196Z,64.93
2019-02-22T04:10:55.766Z,64.87
2019-02-22T04:13:30.819Z,62.17
2019-02-22T04:16:05.892Z,58.57
2019-02-22T04:18:40.784Z,62.17
2019-02-22T04:21:15.633Z,61.80
2019-02-22T04:23:51.015Z,61.90
2019-02-22T04:26:25.606Z,62.53
2019-02-22T04:29:02.089Z,64.10
2019-02-22T04:31:38.237Z,62.73
2019-02-22T04:34:14.038Z,63.13
2019-02-22T04:36:50.726Z,63.07
2019-02-22T04:39:25.834Z,64.33
2019-02-22T04:42:01.345Z,62.90
2019-02-22T04:44:35.792Z,65.07
2019-02-22T04:47:12.652Z,68.77
2019-02-22T04:49:50.132Z,65.77
2019-02-22T04:52:26.649Z,65.63
2019-02-22T04:55:03.745Z,66.23
2019-02-22T04:57:40.840Z,65.33
2019-02-22T05:00:17.449Z,64.97
2019-02-22T05:02:53.312Z,64.67
2019-02-22T05:05:29.919Z,65.43
2019-02-22T05:08:05.555Z,64.47
2019-02-22T05:10:40.123Z,66.00
2019-02-22T05:13:15.586Z,66.37
2019-02-22T05:15:52.163Z,63.70
2019-02-22T05:18:26.922Z,64.53
2019-02-22T05:21:01.402Z,65.43
2019-02-22T05:23:37.784Z,61.63
2019-02-22T05:26:14.565Z,66.87
2019-02-22T05:28:50.147Z,65.77
2019-02-22T05:31:25.854Z,66.00
2019-02-22T05:34:01.687Z,67.57
2019-02-22T05:36:36.852Z,66.97
2019-02-22T05:39:19.151Z,73.63
2019-02-22T05:41:49.935Z,70.23
2019-02-22T05:44:25.625Z,68.07
2019-02-22T05:47:00.797Z,68.13
2019-02-22T05:49:39.472Z,65.83
2019-02-22T05:52:14.657Z,68.00
2019-02-22T05:54:49.472Z,68.80
2019-02-22T05:57:24.693Z,69.90
2019-02-22T05:59:59.420Z,69.20
2019-02-22T06:02:35.577Z,68.77
2019-02-22T06:05:10.854Z,66.83
2019-02-22T06:07:45.831Z,65.93
2019-02-22T06:10:21.221Z,67.43
2019-02-22T06:12:56.123Z,64.70
2019-02-22T06:15:31.517Z,62.67
2019-02-22T06:18:07.974Z,66.03
2019-02-22T06:20:42.844Z,64.57
2019-02-22T06:23:18.878Z,64.73
2019-02-22T06:25:53.979Z,62.93
2019-02-22T06:28:29.053Z,63.03
2019-02-22T06:31:04.586Z,63.07
2019-02-22T06:33:40.136Z,61.57
2019-02-22T06:36:14.674Z,63.83
2019-02-22T06:38:49.813Z,60.53
2019-02-22T06:41:25.284Z,64.90
2019-02-22T06:44:01.358Z,62.57
2019-02-22T06:46:36.038Z,64.17
2019-02-22T06:49:10.209Z,62.23
2019-02-22T06:51:45.467Z,63.93
2019-02-22T06:54:22.318Z,65.20
2019-02-22T06:56:57.842Z,61.87
2019-02-22T06:59:32.027Z,63.17
2019-02-22T07:02:05.829Z,67.97
2019-02-22T07:04:40.593Z,63.67
2019-02-22T07:07:15.510Z,67.83
2019-02-22T07:09:49.031Z,65.33
2019-02-22T07:12:56.156Z,62.40
2019-02-22T07:15:18.128Z,65.00
2019-02-22T07:17:49.623Z,62.93
2019-02-22T07:20:20.913Z,65.60
2019-02-22T07:22:52.669Z,63.63
2019-02-22T07:25:24.631Z,63.60
2019-02-22T07:27:55.847Z,63.87
2019-02-22T07:30:27.628Z,63.47
2019-02-22T07:32:59.338Z,64.17
2019-02-22T07:35:32.761Z,55.50
2019-02-22T07:38:04.883Z,54.77
2019-02-22T07:40:37.272Z,56.07
2019-02-22T07:43:09.432Z,57.50
2019-02-22T07:45:41.628Z,51.90
2019-02-22T07:48:13.012Z,55.43
2019-02-22T07:50:56.314Z,54.50
2019-02-22T07:53:17.572Z,54.17
2019-02-22T07:55:48.638Z,54.50
2019-02-22T07:58:22.814Z,54.17
2019-02-22T08:00:54.744Z,52.53
2019-02-22T08:03:26.476Z,52.77
2019-02-22T08:05:58.107Z,52.67
2019-02-22T08:08:29.771Z,51.80
2019-02-22T08:11:01.740Z,51.27
2019-02-22T08:13:35.225Z,49.03
2019-02-22T08:16:07.473Z,47.87
2019-02-22T08:18:42.756Z,47.07
2019-02-22T08:21:15.011Z,47.97
2019-02-22T08:23:47.065Z,44.10
2019-02-22T08:26:19.859Z,45.97
2019-02-22T08:28:51.551Z,47.53
2019-02-22T08:31:23.189Z,44.87
2019-02-22T08:33:57.033Z,43.37
2019-02-22T08:36:27.424Z,45.03
2019-02-22T08:38:59.754Z,44.97
2019-02-22T08:41:31.326Z,46.47
2019-02-22T08:44:04.113Z,44.60
2019-02-22T08:46:35.874Z,48.60
2019-02-22T08:49:10.814Z,46.20
2019-02-22T08:51:43.394Z,48.40
2019-02-22T08:54:15.403Z,49.17
2019-02-22T08:56:47.864Z,44.93
2019-02-22T08:59:19.344Z,48.80
2019-02-22T09:01:52.616Z,46.27
2019-02-22T09:04:24.388Z,46.17
2019-02-22T09:06:57.302Z,45.13
2019-02-22T09:09:29.514Z,45.33
2019-02-22T09:12:01.430Z,43.97
2019-02-22T09:14:33.499Z,43.13
2019-02-22T09:17:05.735Z,44.10
2019-02-22T09:19:37.364Z,41.03
2019-02-22T09:22:10.123Z,39.40
2019-02-22T09:24:41.842Z,40.83
2019-02-22T09:27:13.594Z,37.37
2019-02-22T09:29:45.608Z,37.47
2019-02-22T09:32:17.707Z,37.20
2019-02-22T09:34:49.879Z,34.60
2019-02-22T09:37:21.227Z,35.73
2019-02-22T09:39:53.536Z,35.13
2019-02-22T09:42:25.269Z,32.23
2019-02-22T09:44:57.381Z,33.17
2019-02-22T09:47:29.720Z,33.47
2019-02-22T09:50:01.683Z,31.43
2019-02-22T09:52:34.216Z,29.97
2019-02-22T09:55:05.894Z,31.20
2019-02-22T09:57:38.653Z,33.10
2019-02-22T10:00:14.153Z,30.33
2019-02-22T10:02:46.177Z,29.33
2019-02-22T10:05:17.619Z,29.97
2019-02-22T10:07:49.193Z,32.67
2019-02-22T10:10:20.667Z,30.57
2019-02-22T10:12:52.316Z,29.53
2019-02-22T10:15:24.193Z,30.13
2019-02-22T10:17:55.676Z,27.70
2019-02-22T10:20:27.660Z,25.47
2019-02-22T10:22:59.657Z,26.50
2019-02-22T10:25:31.517Z,26.13
2019-02-22T10:28:03.365Z,25.97
2019-02-22T10:30:34.787Z,23.40
2019-02-22T10:33:06.989Z,25.03
2019-02-22T10:35:38.737Z,24.87
2019-02-22T10:38:15.080Z,24.80
2019-02-22T10:40:47.019Z,24.10
2019-02-22T10:43:18.388Z,24.80
2019-02-22T10:45:50.904Z,25.13
2019-02-22T10:48:22.507Z,25.13
2019-02-22T10:50:54.318Z,24.53
2019-02-22T10:53:25.866Z,24.70
2019-02-22T10:55:57.892Z,24.87
2019-02-22T10:58:29.062Z,24.20
2019-02-22T11:01:01.076Z,24.50
2019-02-22T11:03:34.169Z,24.33
2019-02-22T11:06:06.123Z,23.30
2019-02-22T11:08:37.197Z,23.30
2019-02-22T11:11:09.254Z,23.47
2019-02-22T11:13:40.687Z,21.67
2019-02-22T11:16:14.082Z,15.87
2019-02-22T11:18:45.706Z,17.97
2019-02-22T11:21:17.690Z,18.10
2019-02-22T11:23:49.155Z,12.17
2019-02-22T11:26:20.720Z,10.30
2019-02-22T11:28:53.088Z,7.37
2019-02-22T11:31:24.650Z,7.00
2019-02-22T11:33:56.987Z,7.37
2019-02-22T11:36:28.646Z,7.13
2019-02-22T11:39:00.831Z,7.37
2019-02-22T11:41:35.370Z,9.53
2019-02-22T11:44:07.096Z,9.53
2019-02-22T11:46:39.752Z,10.80
2019-02-22T11:49:11.824Z,11.23
2019-02-22T11:51:43.574Z,10.37
2019-02-22T11:54:18.435Z,11.30
2019-02-22T11:56:51.357Z,11.60
2019-02-22T11:59:23.210Z,10.23
2019-02-22T12:01:56.363Z,11.77
2019-02-22T12:04:29.986Z,11.70
2019-02-22T12:07:02.765Z,11.10
2019-02-22T12:09:35.423Z,11.30
2019-02-22T12:12:08.512Z,10.97
2019-02-22T12:14:50.866Z,11.00
2019-02-22T12:17:15.498Z,11.73
2019-02-22T12:19:47.483Z,11.23
2019-02-22T12:22:20.163Z,10.83
2019-02-22T12:24:51.613Z,10.77
2019-02-22T12:27:24.290Z,10.70
2019-02-22T12:29:55.932Z,9.67
2019-02-22T12:32:28.369Z,9.23
2019-02-22T12:35:00.468Z,9.47
2019-02-22T12:37:32.115Z,8.90
2019-02-22T12:40:08.351Z,7.90
2019-02-22T12:42:41.151Z,8.37
2019-02-22T12:45:13.338Z,8.80
2019-02-22T12:47:47.018Z,7.63
2019-02-22T12:50:19.537Z,7.33
2019-02-22T12:52:51.140Z,8.60
2019-02-22T12:55:23.848Z,10.73
2019-02-22T12:57:55.539Z,9.67
2019-02-22T13:00:27.057Z,10.67
2019-02-22T13:03:01.937Z,10.20
2019-02-22T13:05:31.967Z,11.07
2019-02-22T13:08:03.437Z,11.33
2019-02-22T13:10:35.003Z,10.90
2019-02-22T13:13:08.405Z,10.80
2019-02-22T13:15:39.078Z,10.83
2019-02-22T13:18:09.736Z,10.80
2019-02-22T13:20:40.402Z,10.40
2019-02-22T13:23:11.160Z,7.87
2019-02-22T13:25:41.683Z,8.37
2019-02-22T13:28:12.384Z,7.27
2019-02-22T13:30:44.164Z,7.50
2019-02-22T13:33:15.720Z,6.60
2019-02-22T13:35:46.325Z,6.40
2019-02-22T13:38:16.947Z,6.60
2019-02-22T13:40:49.296Z,6.37
2019-02-22T13:43:21.662Z,5.70
2019-02-22T13:45:54.327Z,6.20
2019-02-22T13:48:25.125Z,5.27
2019-02-22T13:50:57.158Z,5.63
2019-02-22T13:53:28.009Z,6.10
2019-02-22T13:55:59.778Z,6.50
2019-02-22T13:58:30.554Z,6.03
2019-02-22T14:01:01.728Z,5.87
2019-02-22T14:03:33.093Z,5.30
2019-02-22T14:06:04.017Z,5.40
2019-02-22T14:08:34.741Z,5.63
2019-02-22T14:11:05.621Z,5.37
2019-02-22T14:13:36.575Z,5.87
2019-02-22T14:16:11.177Z,5.83
2019-02-22T14:18:44.482Z,5.90
2019-02-22T14:21:15.313Z,6.87
2019-02-22T14:23:46.509Z,8.20
2019-02-22T14:26:17.235Z,8.67
2019-02-22T14:28:48.066Z,7.97
2019-02-22T14:31:18.645Z,9.43
2019-02-22T14:33:49.745Z,9.70
2019-02-22T14:36:20.678Z,9.67
2019-02-22T14:38:51.666Z,10.10
2019-02-22T14:41:24.373Z,12.70
2019-02-22T14:43:55.095Z,13.27
2019-02-22T14:46:26.798Z,14.93
2019-02-22T14:49:04.773Z,15.07
2019-02-22T14:51:37.275Z,16.50
2019-02-22T14:54:15.938Z,16.13
2019-02-22T14:56:48.149Z,15.87
2019-02-22T14:59:18.789Z,16.60
2019-02-22T15:01:49.546Z,16.93
2019-02-22T15:04:21.283Z,15.67
2019-02-22T15:06:52.573Z,15.27
2019-02-22T15:09:23.195Z,15.13
2019-02-22T15:11:57.506Z,14.83
2019-02-22T15:14:30.693Z,14.07
2019-02-22T15:17:38.328Z,12.53
2019-02-22T15:20:11.444Z,11.07
2019-02-22T15:22:43.633Z,12.20
2019-02-22T15:25:16.546Z,12.47
2019-02-22T15:27:49.556Z,13.13
2019-02-22T15:30:21.935Z,13.00
2019-02-22T15:32:54.551Z,12.00
2019-02-22T15:35:27.499Z,11.40
2019-02-22T15:38:00.884Z,11.10
2019-02-22T15:40:36.171Z,11.33
2019-02-22T15:43:10.102Z,10.87
2019-02-22T15:45:43.777Z,11.70
2019-02-22T15:48:17.922Z,11.47
2019-02-22T15:50:50.945Z,10.53
2019-02-22T15:53:23.531Z,11.37
2019-02-22T15:55:56.153Z,11.33
2019-02-22T15:58:29.647Z,11.20
2019-02-22T16:01:01.759Z,11.50
2019-02-22T16:04:13.005Z,11.57
2019-02-22T16:06:47.140Z,10.87
2019-02-22T16:09:21.973Z,10.13
2019-02-22T16:11:56.543Z,10.13
2019-02-22T16:14:32.134Z,10.13
2019-02-22T16:17:05.295Z,11.13
2019-02-22T16:19:41.297Z,9.77
2019-02-22T16:22:15.628Z,10.30
2019-02-22T16:24:48.589Z,10.20
2019-02-22T16:27:20.863Z,10.30
2019-02-22T16:29:56.203Z,9.70
2019-02-22T16:32:30.877Z,9.70
2019-02-22T16:35:03.569Z,9.77
2019-02-22T16:37:38.241Z,10.43
2019-02-22T16:40:15.622Z,10.50
2019-02-22T16:42:50.164Z,10.37
2019-02-22T16:45:22.771Z,9.50
2019-02-22T16:47:55.031Z,10.50
2019-02-22T16:50:29.770Z,10.33
2019-02-22T16:53:02.319Z,12.33
2019-02-22T16:55:35.726Z,11.00
2019-02-22T16:58:08.381Z,10.80
2019-02-22T17:00:41.448Z,11.70
2019-02-22T17:03:14.636Z,13.23
2019-02-22T17:05:47.166Z,12.40
2019-02-22T17:08:20.733Z,12.43
2019-02-22T17:10:52.533Z,12.97
2019-02-22T17:13:24.940Z,13.03
2019-02-22T17:15:57.978Z,13.33
2019-02-22T17:18:30.253Z,12.67
2019-02-22T17:21:03.781Z,12.50
2019-02-22T17:23:36.535Z,12.93
2019-02-22T17:26:13.389Z,12.83
2019-02-22T17:28:46.084Z,13.60
2019-02-22T17:31:19.349Z,13.20
2019-02-22T17:33:52.315Z,14.03
2019-02-22T17:36:27.149Z,12.50
2019-02-22T17:38:59.985Z,12.47
2019-02-22T17:41:32.600Z,12.20
2019-02-22T17:44:05.114Z,12.43
2019-02-22T17:46:38.740Z,12.63
2019-02-22T17:49:13.556Z,12.60
2019-02-22T17:51:45.949Z,12.63
2019-02-22T17:54:18.420Z,14.90
2019-02-22T17:56:50.643Z,13.10
2019-02-22T17:59:23.335Z,12.57
2019-02-22T18:01:56.010Z,12.33
2019-02-22T18:04:29.128Z,12.17
2019-02-22T18:07:06.709Z,11.03
2019-02-22T18:09:39.215Z,11.67
2019-02-22T18:12:11.740Z,11.40
2019-02-22T18:14:44.713Z,11.67
2019-02-22T18:17:16.892Z,10.93
2019-02-22T18:19:52.143Z,11.30
2019-02-22T18:22:26.123Z,11.77
2019-02-22T18:25:02.297Z,11.23
2019-02-22T18:27:35.346Z,12.37
2019-02-22T18:30:09.897Z,11.53
2019-02-22T18:32:45.624Z,11.60
2019-02-22T18:35:19.329Z,12.13
2019-02-22T18:37:57.107Z,11.27
2019-02-22T18:40:30.771Z,12.80
2019-02-22T18:43:03.609Z,11.30
2019-02-22T18:45:37.843Z,12.57
2019-02-22T18:48:13.515Z,11.70
2019-02-22T18:50:46.649Z,11.40
2019-02-22T18:53:19.494Z,12.23
2019-02-22T18:55:52.234Z,11.90
2019-02-22T18:58:25.550Z,12.83
2019-02-22T19:01:00.422Z,12.73
2019-02-22T19:03:33.154Z,13.33
2019-02-22T19:06:05.619Z,13.30
2019-02-22T19:08:40.205Z,12.57
2019-02-22T19:11:12.917Z,12.87
2019-02-22T19:13:47.138Z,12.77
2019-02-22T19:16:20.608Z,13.50
2019-02-22T19:18:53.812Z,12.53
2019-02-22T19:21:27.859Z,13.80
2019-02-22T19:24:01.831Z,14.57
2019-02-22T19:26:35.688Z,15.00
2019-02-22T19:29:09.236Z,14.87
2019-02-22T19:31:41.838Z,16.93
2019-02-22T19:34:26.691Z,14.97
2019-02-22T19:36:59.305Z,16.90
2019-02-22T19:39:33.153Z,16.60
2019-02-22T19:42:09.436Z,16.33
2019-02-22T19:44:43.096Z,17.93
2019-02-22T19:47:18.704Z,17.77
2019-02-22T19:49:52.533Z,18.73
2019-02-22T19:52:26.310Z,19.80
2019-02-22T19:54:59.363Z,20.30
2019-02-22T19:57:35.154Z,21.93
2019-02-22T20:00:10.808Z,23.13
2019-02-22T20:02:44.860Z,23.40
2019-02-22T20:05:20.767Z,23.10
2019-02-22T20:07:56.355Z,23.57
2019-02-22T20:10:34.540Z,22.40
2019-02-22T20:13:09.759Z,23.47
2019-02-22T20:15:46.044Z,25.07
2019-02-22T20:18:21.068Z,25.10
2019-02-22T20:20:55.772Z,25.33
2019-02-22T20:23:30.942Z,25.73
2019-02-22T20:26:05.553Z,24.97
2019-02-22T20:28:44.171Z,26.30
2019-02-22T20:31:20.489Z,26.77
2019-02-22T20:34:02.194Z,27.63
2019-02-22T20:36:37.076Z,27.33
2019-02-22T20:39:13.244Z,28.30
2019-02-22T20:41:49.148Z,28.90
2019-02-22T20:44:26.071Z,28.13
2019-02-22T20:47:00.504Z,29.50
2019-02-22T20:49:37.225Z,28.40
2019-02-22T20:52:14.477Z,28.37
2019-02-22T20:54:48.318Z,28.53
2019-02-22T20:57:24.779Z,30.53
2019-02-22T21:00:06.330Z,28.83
2019-02-22T21:02:42.589Z,28.73
2019-02-22T21:05:18.435Z,28.47
2019-02-22T21:07:54.763Z,31.53
2019-02-22T21:10:33.380Z,30.03
2019-02-22T21:13:12.368Z,31.40
2019-02-22T21:15:48.246Z,30.07
2019-02-22T21:18:23.659Z,29.40
2019-02-22T21:20:58.672Z,29.83
2019-02-22T21:23:36.167Z,31.73
2019-02-22T21:26:10.798Z,30.70
2019-02-22T21:28:45.119Z,30.70
2019-02-22T21:31:20.284Z,32.90
2019-02-22T21:33:56.001Z,32.03
2019-02-22T21:36:30.334Z,31.57
2019-02-22T21:39:05.719Z,31.60
2019-02-22T21:41:40.972Z,30.97
2019-02-22T21:44:14.856Z,31.93
2019-02-22T21:46:49.222Z,30.90
2019-02-22T21:49:23.825Z,31.50
2019-02-22T21:51:59.969Z,33.07
2019-02-22T21:54:37.765Z,32.30
2019-02-22T21:57:12.448Z,33.07
2019-02-22T21:59:46.810Z,31.07
2019-02-22T22:02:21.810Z,36.23
2019-02-22T22:04:56.259Z,35.13
2019-02-22T22:07:30.816Z,34.00
2019-02-22T22:10:05.504Z,36.07
2019-02-22T22:12:40.279Z,35.77
2019-02-22T22:15:14.711Z,36.37
2019-02-22T22:17:49.401Z,34.17
2019-02-22T22:20:22.923Z,35.07
2019-02-22T22:22:58.316Z,35.03
2019-02-22T22:25:32.449Z,32.27
2019-02-22T22:28:06.596Z,33.20
2019-02-22T22:30:40.527Z,34.13
2019-02-22T22:33:18.879Z,34.63
2019-02-22T22:35:54.796Z,34.13
2019-02-22T22:38:29.061Z,36.27
2019-02-22T22:41:03.396Z,32.50
2019-02-22T22:43:37.927Z,34.57
2019-02-22T22:46:12.930Z,32.10
2019-02-22T22:48:50.454Z,33.97
2019-02-22T22:51:22.951Z,34.63
2019-02-22T22:53:58.869Z,34.03
2019-02-22T22:56:35.222Z,33.00
2019-02-22T22:59:11.260Z,32.73
2019-02-22T23:01:45.935Z,36.53
2019-02-22T23:04:19.836Z,37.17
2019-02-22T23:06:54.562Z,37.97
2019-02-22T23:09:29.311Z,37.20
2019-02-22T23:12:03.772Z,38.17
2019-02-22T23:14:39.236Z,35.90
2019-02-22T23:17:13.349Z,33.90
2019-02-22T23:19:47.983Z,38.20
2019-02-22T23:22:23.971Z,38.67
2019-02-22T23:24:59.451Z,40.23
2019-02-22T23:27:34.147Z,36.10
2019-02-22T23:30:09.104Z,38.17
2019-02-22T23:32:43.630Z,37.97
2019-02-22T23:35:21.278Z,40.17
2019-02-22T23:37:56.347Z,37.13
2019-02-22T23:40:33.125Z,36.40
2019-02-22T23:43:09.403Z,40.83
2019-02-22T23:45:44.689Z,40.87
2019-02-22T23:48:18.279Z,35.33
2019-02-22T23:50:52.831Z,35.27
2019-02-22T23:53:26.847Z,39.67
2019-02-22T23:56:00.993Z,33.40
2019-02-22T23:58:34.620Z,37.77
